Time;durP1;ratioP1;P1;durP2;ratioP2;P2;SDS_P1;SDS_P2;PMS_P1;PMS_P2;Temp;Humidity;BMP_temperature;BMP_pressure;BME280_temperature;BME280_humidity;BME280_pressure;Samples;Min_cycle;Max_cycle;Signal;HPM_P1;HPM_P2
2022/10/03 00:00:39;;;;;;;;;35.60;32.40;;;;;16.74;67.09;102092.53;2076838;28;46569;-61
2022/10/03 00:02:13;;;;;;;;;35.20;31.60;;;;;16.75;66.81;102086.25;2075217;28;47129;-62
2022/10/03 00:03:35;;;;;;;;;33.20;30.20;;;;;16.76;67.01;102089.81;2074236;28;46907;-62
2022/10/03 00:05:00;;;;;;;;;46.80;39.00;;;;;16.77;66.99;102086.22;2073392;28;45824;-62
2022/10/03 00:06:08;;;;;;;;;48.00;40.80;;;;;16.76;67.09;102079.97;2078490;28;46872;-62
2022/10/03 00:07:46;;;;;;;;;50.00;42.00;;;;;16.75;66.59;102077.31;2082127;28;47038;-62
2022/10/03 00:08:49;;;;;;;;;50.60;42.20;;;;;16.74;67.07;102084.47;2073540;28;46497;-61
2022/10/03 00:10:07;;;;;;;;;51.20;42.00;;;;;16.75;67.23;102086.25;2070569;28;46589;-62
2022/10/03 00:11:53;;;;;;;;;50.80;42.00;;;;;16.76;66.94;102081.75;2062266;28;46235;-62
2022/10/03 00:12:53;;;;;;;;;52.00;43.00;;;;;16.75;67.06;102080.88;2067104;28;46388;-61
2022/10/03 00:14:04;;;;;;;;;53.00;43.00;;;;;16.76;67.05;102092.47;2074271;28;46561;-63
2022/10/03 00:15:16;;;;;;;;;50.20;42.20;;;;;16.76;66.97;102085.31;2062693;28;45706;-62
2022/10/03 00:16:46;;;;;;;;;47.40;39.20;;;;;16.75;66.82;102086.25;2071560;28;45790;-63
2022/10/03 00:18:43;;;;;;;;;47.80;39.00;;;;;16.73;66.69;102090.78;2068461;28;46306;-61
2022/10/03 00:20:18;;;;;;;;;48.00;40.80;;;;;16.71;66.98;102105.13;2059112;28;47045;-63
2022/10/03 00:21:47;;;;;;;;;50.60;41.40;;;;;16.67;66.98;102098.97;2052332;28;45476;-62
2022/10/03 00:22:51;;;;;;;;;42.40;35.40;;;;;16.65;67.25;102092.75;2057242;28;46625;-63
2022/10/03 00:23:58;;;;;;;;;45.60;39.00;;;;;16.63;67.49;102094.56;2058747;28;46049;-62
2022/10/03 00:25:04;;;;;;;;;47.80;40.40;;;;;16.62;66.98;102098.16;2061052;28;46353;-63
2022/10/03 00:26:38;;;;;;;;;50.60;41.60;;;;;16.62;67.23;102090.13;2056148;28;46969;-62
2022/10/03 00:27:48;;;;;;;;;45.00;38.80;;;;;16.61;67.60;102099.09;2016110;29;46523;-62
2022/10/03 00:29:12;;;;;;;;;32.60;30.80;;;;;16.60;67.61;102100.00;2019946;29;46396;-62
2022/10/03 00:30:17;;;;;;;;;47.40;39.80;;;;;16.58;67.29;102093.81;2005352;29;46837;-63
2022/10/03 00:31:24;;;;;;;;;44.80;37.00;;;;;16.59;67.35;102095.56;2001509;29;46706;-64
2022/10/03 00:32:54;;;;;;;;;39.60;34.00;;;;;16.60;67.29;102096.44;2005831;29;46564;-63
2022/10/03 00:34:18;;;;;;;;;36.00;32.20;;;;;16.59;67.12;102095.56;2005806;29;47394;-64
2022/10/03 00:35:26;;;;;;;;;38.20;32.60;;;;;16.59;67.31;102092.00;1981481;29;46878;-62
2022/10/03 00:36:36;;;;;;;;;37.20;32.00;;;;;16.59;67.51;102094.69;1984988;29;46728;-61
2022/10/03 00:37:49;;;;;;;;;32.80;29.80;;;;;16.59;67.28;102092.88;1985993;29;46522;-61
2022/10/03 00:39:06;;;;;;;;;38.40;32.80;;;;;16.59;67.54;102094.69;1992385;29;46355;-61
2022/10/03 00:40:19;;;;;;;;;33.40;31.20;;;;;16.60;67.40;102096.44;1993143;29;46569;-63
2022/10/03 00:41:28;;;;;;;;;32.20;29.60;;;;;16.61;67.50;102096.41;1991649;29;46681;-62
2022/10/03 00:42:40;;;;;;;;;25.00;24.20;;;;;16.60;67.01;102100.00;1998047;29;46959;-63
2022/10/03 00:43:54;;;;;;;;;26.60;26.40;;;;;16.59;67.55;102100.03;1995979;29;46613;-62
2022/10/03 00:45:19;;;;;;;;;28.40;27.20;;;;;16.58;67.33;102106.31;1993598;29;46821;-62
2022/10/03 00:46:42;;;;;;;;;31.20;29.60;;;;;16.58;67.69;102106.31;1996587;29;46730;-61
2022/10/03 00:48:03;;;;;;;;;29.60;28.20;;;;;16.57;67.36;102101.88;1991323;29;47054;-61
2022/10/03 00:49:25;;;;;;;;;27.20;25.20;;;;;16.58;67.27;102100.97;1991519;29;46784;-63
2022/10/03 00:50:54;;;;;;;;;24.40;23.40;;;;;16.56;67.41;102097.44;1998229;29;46042;-63
2022/10/03 00:52:03;;;;;;;;;23.00;21.80;;;;;16.55;67.41;102101.94;2000236;29;46474;-62
2022/10/03 00:53:28;;;;;;;;;34.00;30.80;;;;;16.55;67.58;102101.94;1999578;29;45849;-63
2022/10/03 00:54:32;;;;;;;;;34.20;30.80;;;;;16.54;67.74;102099.28;1994835;29;46932;-62
2022/10/03 00:55:35;;;;;;;;;29.40;28.00;;;;;16.52;67.66;102102.00;1999078;29;46695;-62
2022/10/03 00:56:44;;;;;;;;;30.40;29.20;;;;;16.53;67.69;102100.22;1999257;29;46286;-63
2022/10/03 00:57:56;;;;;;;;;32.40;27.00;;;;;16.50;67.84;102103.81;1999105;29;46767;-62
2022/10/03 00:59:34;;;;;;;;;22.20;21.80;;;;;16.49;67.38;102107.41;1998803;29;46816;-62
2022/10/03 01:00:34;;;;;;;;;28.00;27.80;;;;;16.47;67.73;102103.91;1998882;29;45242;-62
2022/10/03 01:01:43;;;;;;;;;29.50;26.75;;;;;16.45;67.28;102103.06;1999182;29;46370;-62
2022/10/03 01:03:22;;;;;;;;;25.80;25.00;;;;;16.44;67.71;102095.94;2000163;29;46519;-62
2022/10/03 01:04:25;;;;;;;;;33.20;29.60;;;;;16.43;67.69;102095.06;1996978;29;46272;-62
2022/10/03 01:05:50;;;;;;;;;37.60;33.00;;;;;16.42;67.97;102096.00;2014436;29;46215;-61
2022/10/03 01:07:11;;;;;;;;;43.00;36.60;;;;;16.42;67.72;102092.44;2016442;29;46788;-62
2022/10/03 01:08:23;;;;;;;;;46.00;39.20;;;;;16.41;67.52;102091.53;2037933;28;46911;-62
2022/10/03 01:09:45;;;;;;;;;44.40;38.00;;;;;16.42;67.89;102097.78;2051481;28;46561;-61
2022/10/03 01:11:14;;;;;;;;;39.20;33.60;;;;;16.41;67.70;102094.22;2051579;28;46399;-63
2022/10/03 01:12:31;;;;;;;;;45.40;38.00;;;;;16.43;67.95;102099.53;2050983;28;47551;-61
2022/10/03 01:13:53;;;;;;;;;50.20;40.60;;;;;16.43;67.86;102102.22;2086634;28;47112;-62
2022/10/03 01:15:18;;;;;;;;;47.80;39.20;;;;;16.42;67.78;102109.38;2087568;28;46482;-61
2022/10/03 01:16:26;;;;;;;;;40.60;35.60;;;;;16.40;67.56;102096.94;2095996;28;47030;-61
2022/10/03 01:17:49;;;;;;;;;33.80;32.20;;;;;16.41;67.67;102093.34;2095520;28;46285;-61
2022/10/03 01:19:18;;;;;;;;;39.00;34.40;;;;;16.41;68.03;102099.59;2095922;28;47023;-62
2022/10/03 01:20:25;;;;;;;;;38.00;33.00;;;;;16.41;67.74;102096.03;2088050;28;46896;-62
2022/10/03 01:21:44;;;;;;;;;38.60;33.20;;;;;16.42;67.50;102104.03;2095382;28;46788;-62
2022/10/03 01:23:15;;;;;;;;;30.40;30.00;;;;;16.44;67.43;102106.66;2090078;28;46532;-63
2022/10/03 01:24:34;;;;;;;;;36.00;32.40;;;;;16.45;67.92;102109.31;2094756;28;46061;-63
2022/10/03 01:25:51;;;;;;;;;37.60;33.00;;;;;16.46;67.65;102107.50;2089733;28;46536;-62
2022/10/03 01:26:55;;;;;;;;;42.20;33.60;;;;;16.46;67.58;102111.06;2095312;28;46565;-61
2022/10/03 01:31:01;;;;;;;;;29.40;29.20;;;;;16.44;67.87;102106.66;2094378;28;46546;-62
2022/10/03 01:32:19;;;;;;;;;32.80;30.80;;;;;16.43;67.94;102108.47;2098165;28;46870;-62
2022/10/03 01:33:28;;;;;;;;;30.40;30.00;;;;;16.44;67.80;102101.31;2094168;28;46679;-62
2022/10/03 01:34:44;;;;;;;;;32.40;30.00;;;;;16.44;67.91;102104.88;2088908;28;46454;-62
2022/10/03 01:35:52;;;;;;;;;30.40;27.00;;;;;16.42;67.79;102109.38;2095525;28;45965;-62
2022/10/03 01:36:55;;;;;;;;;32.00;29.80;;;;;16.43;67.77;102112.94;2095523;28;46109;-63
2022/10/03 01:38:27;;;;;;;;;28.80;26.80;;;;;16.45;67.56;102111.09;2093240;28;46386;-62
2022/10/03 01:39:40;;;;;;;;;32.60;29.80;;;;;16.45;67.58;102111.97;2091817;28;46413;-63
2022/10/03 01:40:57;;;;;;;;;30.20;27.80;;;;;16.45;67.50;102105.75;2093916;28;46453;-64
2022/10/03 01:42:12;;;;;;;;;31.00;28.40;;;;;16.44;67.69;102099.50;2099307;28;45857;-62
2022/10/03 01:43:35;;;;;;;;;33.20;30.80;;;;;16.43;67.76;102099.53;2097838;28;47535;-63
2022/10/03 01:45:16;;;;;;;;;32.40;29.80;;;;;16.41;67.44;102102.25;2090834;28;46359;-62
2022/10/03 01:46:32;;;;;;;;;36.20;33.20;;;;;16.41;67.35;102096.03;2080180;28;46209;-65
2022/10/03 01:48:03;;;;;;;;;40.80;34.00;;;;;16.41;67.17;102104.06;2079694;28;46292;-63
2022/10/03 01:49:09;;;;;;;;;33.60;31.20;;;;;16.39;67.28;102101.44;2079225;28;46704;-64
2022/10/03 01:50:29;;;;;;;;;34.40;31.00;;;;;16.37;67.28;102100.56;2080881;28;46855;-61
2022/10/03 01:51:55;;;;;;;;;40.20;34.20;;;;;16.36;67.74;102104.16;2079120;28;46787;-61
2022/10/03 01:53:05;;;;;;;;;38.00;34.20;;;;;16.36;67.52;102097.91;2080807;28;46395;-61
2022/10/03 01:54:23;;;;;;;;;37.40;32.00;;;;;16.38;67.77;102104.09;2072083;28;46300;-63
2022/10/03 01:55:36;;;;;;;;;40.20;33.60;;;;;16.37;67.24;102102.34;2076902;28;46979;-63
2022/10/03 01:56:51;;;;;;;;;35.80;33.20;;;;;16.37;67.66;102097.00;2079986;28;45360;-63
2022/10/03 01:58:19;;;;;;;;;39.60;34.40;;;;;16.36;67.85;102095.22;2079233;28;46734;-63
2022/10/03 01:59:38;;;;;;;;;45.20;37.40;;;;;16.35;67.27;102098.84;2060113;28;46616;-63
2022/10/03 02:00:51;;;;;;;;;43.60;35.40;;;;;16.34;67.38;102089.91;2055383;28;45906;-63
2022/10/03 02:02:06;;;;;;;;;39.80;34.60;;;;;16.34;67.80;102094.41;2051077;28;46353;-61
2022/10/03 02:03:21;;;;;;;;;40.20;34.80;;;;;16.35;67.77;102093.47;2063458;28;46841;-61
2022/10/03 02:04:50;;;;;;;;;39.60;34.00;;;;;16.36;67.76;102092.56;2056825;28;46527;-61
2022/10/03 02:05:56;;;;;;;;;41.20;35.00;;;;;16.36;67.55;102085.41;2062385;28;46535;-61
2022/10/03 02:07:07;;;;;;;;;41.40;35.80;;;;;16.36;67.22;102088.06;2063045;28;46837;-61
2022/10/03 02:08:16;;;;;;;;;45.20;37.20;;;;;16.37;67.65;102087.16;2062958;28;47143;-64
2022/10/03 02:09:39;;;;;;;;;42.80;34.80;;;;;16.38;67.85;102090.72;2062728;28;46415;-63
2022/10/03 02:10:52;;;;;;;;;39.80;35.40;;;;;16.40;67.50;102091.59;2039857;28;46843;-62
2022/10/03 02:12:03;;;;;;;;;34.60;32.80;;;;;16.40;67.49;102089.78;2038590;28;46385;-61
2022/10/03 02:13:27;;;;;;;;;43.00;36.20;;;;;16.41;67.22;102085.31;2038693;28;46477;-63
2022/10/03 02:14:46;;;;;;;;;43.20;36.60;;;;;16.42;67.39;102087.06;2031632;28;46284;-63
2022/10/03 02:15:56;;;;;;;;;44.80;37.40;;;;;16.41;66.94;102093.34;2032393;28;47012;-63
2022/10/03 02:17:19;;;;;;;;;42.60;36.80;;;;;16.42;67.63;102092.44;2038861;28;46561;-62
2022/10/03 02:18:33;;;;;;;;;45.20;37.00;;;;;16.42;67.45;102087.94;2037888;28;46658;-62
2022/10/03 02:19:47;;;;;;;;;46.00;37.00;;;;;16.41;67.28;102091.53;2041163;28;46395;-62
2022/10/03 02:20:56;;;;;;;;;39.40;34.20;;;;;16.39;67.15;102088.03;2043279;28;46515;-62
2022/10/03 02:21:59;;;;;;;;;41.60;37.00;;;;;16.39;67.08;102090.72;2046512;28;46962;-62
2022/10/03 02:23:00;;;;;;;;;46.20;39.20;;;;;16.39;67.07;102082.66;2045468;28;45571;-63
2022/10/03 02:24:15;;;;;;;;;36.25;31.50;;;;;16.39;67.01;102084.47;2039943;28;46793;-61
2022/10/03 02:25:34;;;;;;;;;42.60;35.80;;;;;16.40;67.18;102080.88;2041557;28;46112;-64
2022/10/03 02:26:53;;;;;;;;;41.00;33.80;;;;;16.41;67.09;102082.63;2046626;28;46575;-63
2022/10/03 02:28:34;;;;;;;;;35.00;29.60;;;;;16.39;67.06;102082.66;2046470;28;46910;-61
2022/10/03 02:30:01;;;;;;;;;37.00;33.60;;;;;16.38;67.04;102093.41;2042130;28;46922;-61
2022/10/03 02:31:27;;;;;;;;;33.40;30.40;;;;;16.36;67.03;102092.56;2046599;28;46453;-63
2022/10/03 02:32:45;;;;;;;;;33.80;30.60;;;;;16.35;66.92;102093.47;2046943;28;46323;-62
2022/10/03 02:34:22;;;;;;;;;34.40;31.40;;;;;16.36;67.18;102092.56;2043954;28;47253;-64
2022/10/03 02:35:47;;;;;;;;;35.00;31.40;;;;;16.37;66.90;102091.63;2043724;28;46439;-62
2022/10/03 02:37:07;;;;;;;;;35.20;32.20;;;;;16.37;67.03;102086.28;2047288;28;47078;-61
2022/10/03 02:38:25;;;;;;;;;33.00;29.20;;;;;16.38;66.77;102088.03;2055341;28;47015;-62
2022/10/03 02:39:38;;;;;;;;;36.40;32.60;;;;;16.38;67.02;102086.22;2047250;28;46721;-63
2022/10/03 02:40:46;;;;;;;;;33.40;30.80;;;;;16.37;67.09;102083.59;2054469;28;46739;-61
2022/10/03 02:42:18;;;;;;;;;31.00;29.60;;;;;16.38;67.04;102088.03;2055274;28;46329;-63
2022/10/03 02:43:42;;;;;;;;;31.40;29.80;;;;;16.38;66.51;102085.34;2039332;28;46451;-62
2022/10/03 02:45:14;;;;;;;;;29.60;29.60;;;;;16.37;67.00;102084.47;2041507;28;46726;-61
2022/10/03 02:46:42;;;;;;;;;32.00;30.80;;;;;16.37;66.91;102084.47;2039298;28;46767;-61
2022/10/03 02:48:21;;;;;;;;;30.60;28.80;;;;;16.35;66.84;102086.31;2030991;28;46244;-61
2022/10/03 02:49:43;;;;;;;;;32.80;31.00;;;;;16.35;67.00;102091.69;2070098;28;46917;-62
2022/10/03 02:51:01;;;;;;;;;29.60;29.40;;;;;16.34;66.63;102089.91;2070881;28;45977;-63
2022/10/03 02:52:25;;;;;;;;;34.20;32.00;;;;;16.33;67.18;102089.97;2064693;28;46129;-62
2022/10/03 02:54:03;;;;;;;;;29.40;28.40;;;;;16.34;66.71;102089.03;2068020;28;46870;-62
2022/10/03 02:55:22;;;;;;;;;31.00;28.20;;;;;16.34;66.81;102086.34;2065646;28;46235;-63
2022/10/03 02:57:05;;;;;;;;;29.20;28.20;;;;;16.34;66.72;102094.41;2066638;28;46864;-62
2022/10/03 02:58:35;;;;;;;;;34.80;31.80;;;;;16.34;67.08;102089.03;2037989;28;46458;-62
2022/10/03 03:00:12;;;;;;;;;28.20;27.20;;;;;16.33;66.74;102092.63;2038658;28;46606;-60
2022/10/03 03:01:36;;;;;;;;;32.80;32.00;;;;;16.34;66.90;102094.41;2034995;28;46996;-60
2022/10/03 03:03:18;;;;;;;;;26.20;23.80;;;;;16.35;67.00;102093.47;2038212;28;46862;-61
2022/10/03 03:04:55;;;;;;;;;32.40;30.60;;;;;16.36;66.84;102097.91;2033737;28;47139;-62
2022/10/03 03:06:32;;;;;;;;;32.20;30.00;;;;;16.35;66.58;102091.69;2038255;28;46499;-60
2022/10/03 03:08:00;;;;;;;;;29.40;28.40;;;;;16.34;66.68;102092.59;2038598;28;45349;-60
2022/10/03 03:09:29;;;;;;;;;30.20;27.40;;;;;16.33;66.47;102088.16;2037418;28;45848;-61
2022/10/03 03:11:07;;;;;;;;;29.20;28.60;;;;;16.33;67.13;102082.81;2038474;28;46919;-61
2022/10/03 03:13:06;;;;;;;;;31.40;27.40;;;;;16.33;67.01;102085.47;2033528;28;48314;-61
2022/10/03 03:14:24;;;;;;;;;24.40;23.60;;;;;16.34;66.99;102089.03;2012708;29;45955;-62
2022/10/03 03:16:02;;;;;;;;;27.00;26.00;;;;;16.33;67.22;102095.31;2014122;29;46772;-62
2022/10/03 03:17:22;;;;;;;;;27.60;25.00;;;;;16.33;66.71;102087.28;2014833;29;46273;-63
2022/10/03 03:18:33;;;;;;;;;28.40;28.40;;;;;16.34;67.21;102092.59;2014747;29;46559;-62
2022/10/03 03:19:58;;;;;;;;;28.60;28.60;;;;;16.35;67.06;102093.47;2014789;29;46819;-62
2022/10/03 03:21:09;;;;;;;;;29.20;28.00;;;;;16.35;66.88;102086.31;2025873;28;46357;-63
2022/10/03 03:22:27;;;;;;;;;29.60;29.00;;;;;16.35;66.71;102089.00;2038627;28;45691;-61
2022/10/03 03:23:54;;;;;;;;;29.00;27.20;;;;;16.37;67.33;102092.50;2030548;29;46496;-61
2022/10/03 03:25:10;;;;;;;;;25.40;25.40;;;;;16.38;67.01;102090.72;2034010;28;46736;-64
2022/10/03 03:26:50;;;;;;;;;32.00;27.80;;;;;16.39;67.01;102095.19;2037944;28;46977;-62
2022/10/03 03:27:57;;;;;;;;;24.00;24.00;;;;;16.39;67.17;102089.81;2038430;28;46739;-62
2022/10/03 03:29:48;;;;;;;;;30.00;28.60;;;;;16.38;67.16;102083.56;2041793;28;46431;-63
2022/10/03 03:31:08;;;;;;;;;32.00;27.00;;;;;16.38;66.75;102086.22;2006697;29;46598;-62
2022/10/03 03:32:21;;;;;;;;;30.00;25.60;;;;;16.41;66.88;102090.66;2004305;29;45798;-62
2022/10/03 03:33:35;;;;;;;;;32.60;29.80;;;;;16.39;66.99;102082.66;2006662;29;46334;-61
2022/10/03 03:34:53;;;;;;;;;28.40;27.20;;;;;16.40;67.10;102081.75;2002024;29;45336;-64
2022/10/03 03:36:19;;;;;;;;;33.80;32.00;;;;;16.41;66.90;102080.81;2010630;29;46860;-60
2022/10/03 03:37:33;;;;;;;;;31.60;30.00;;;;;16.42;66.85;102087.94;2014329;29;46432;-62
2022/10/03 03:39:24;;;;;;;;;28.20;23.40;;;;;16.42;66.67;102084.38;2014290;29;46381;-61
2022/10/03 03:40:58;;;;;;;;;33.20;30.60;;;;;16.43;66.61;102087.03;1995952;29;46663;-62
2022/10/03 03:42:15;;;;;;;;;27.80;26.80;;;;;16.44;66.54;102086.09;1999228;29;45689;-63
2022/10/03 03:43:21;;;;;;;;;31.80;28.60;;;;;16.43;66.66;102081.66;1999142;29;46479;-61
2022/10/03 03:44:53;;;;;;;;;31.60;28.00;;;;;16.42;66.94;102087.94;1999454;29;46886;-63
2022/10/03 03:46:19;;;;;;;;;34.40;28.80;;;;;16.43;66.92;102087.03;1991686;29;46777;-62
2022/10/03 03:47:42;;;;;;;;;25.40;23.80;;;;;16.41;66.67;102083.50;1995374;29;46810;-63
2022/10/03 03:48:51;;;;;;;;;31.20;22.20;;;;;16.40;67.12;102087.09;1999059;29;46661;-62
2022/10/03 03:50:28;;;;;;;;;23.00;22.80;;;;;16.38;67.04;102093.41;2010596;28;45914;-63
2022/10/03 03:51:40;;;;;;;;;21.80;21.80;;;;;16.36;67.35;102085.41;2035191;28;46419;-62
2022/10/03 03:53:14;;;;;;;;;21.00;19.00;;;;;16.35;66.88;102091.69;2039238;28;46585;-61
2022/10/03 03:54:53;;;;;;;;;21.40;20.00;;;;;16.34;67.28;102087.25;2038267;28;46462;-63
2022/10/03 03:56:22;;;;;;;;;19.60;18.20;;;;;16.34;67.56;102089.03;2022672;29;46912;-62
2022/10/03 03:57:35;;;;;;;;;19.60;18.60;;;;;16.32;67.56;102089.06;2006793;29;47041;-62
2022/10/03 03:59:04;;;;;;;;;18.25;17.25;;;;;16.30;67.54;102084.69;2006351;29;46642;-63
2022/10/03 04:00:15;;;;;;;;;20.00;17.00;;;;;16.28;67.44;102083.84;2007483;29;46373;-62
2022/10/03 04:01:50;;;;;;;;;23.00;22.40;;;;;16.23;67.53;102083.94;2009870;29;46193;-62
2022/10/03 04:03:28;;;;;;;;;17.60;14.80;;;;;16.22;67.49;102090.19;1994527;29;46479;-62
2022/10/03 04:05:13;;;;;;;;;22.00;20.20;;;;;16.23;67.44;102091.97;1991403;29;46497;-62
2022/10/03 04:06:35;;;;;;;;;25.00;24.60;;;;;16.22;67.92;102092.88;1962612;29;46457;-62
2022/10/03 04:07:56;;;;;;;;;21.40;18.80;;;;;16.21;68.04;102091.13;1961444;30;46822;-63
2022/10/03 04:09:19;;;;;;;;;21.80;21.00;;;;;16.21;67.93;102082.22;1965319;29;46763;-61
2022/10/03 04:10:26;;;;;;;;;22.80;21.00;;;;;16.19;67.98;102084.94;1964411;29;46732;-61
2022/10/03 04:11:50;;;;;;;;;24.20;23.40;;;;;16.20;67.64;102081.31;1961873;30;45695;-61
2022/10/03 04:13:12;;;;;;;;;23.20;23.20;;;;;16.20;67.89;102081.31;1962582;29;46881;-62
2022/10/03 04:14:40;;;;;;;;;23.60;22.60;;;;;16.20;68.00;102086.69;1962889;29;46788;-61
2022/10/03 04:15:43;;;;;;;;;25.60;24.00;;;;;16.20;67.66;102086.69;1961774;29;46308;-63
2022/10/03 04:19:41;;;;;;;;;23.60;23.20;;;;;16.22;67.73;102082.16;1961723;29;46879;-62
2022/10/03 04:20:59;;;;;;;;;25.00;25.00;;;;;16.20;68.00;102078.66;1961919;29;45709;-63
2022/10/03 04:22:24;;;;;;;;;22.80;21.60;;;;;16.22;68.00;102081.28;1961985;29;46877;-63
2022/10/03 04:23:33;;;;;;;;;21.20;20.40;;;;;16.22;68.08;102082.16;1961965;30;46890;-63
2022/10/03 04:24:52;;;;;;;;;24.20;24.00;;;;;16.23;68.27;102088.41;1965822;29;47049;-61
2022/10/03 04:26:05;;;;;;;;;25.00;19.20;;;;;16.21;67.90;102083.09;1963652;29;46800;-63
2022/10/03 04:27:37;;;;;;;;;19.20;17.80;;;;;16.23;68.19;102085.72;1965823;29;46070;-63
2022/10/03 04:28:45;;;;;;;;;21.20;18.20;;;;;16.23;68.00;102086.59;1961853;29;45726;-63
2022/10/03 04:29:52;;;;;;;;;21.40;20.40;;;;;16.23;68.00;102091.09;1966234;29;46485;-63
2022/10/03 04:31:02;;;;;;;;;22.60;17.00;;;;;16.19;68.17;102085.81;1961943;29;45959;-64
2022/10/03 04:32:33;;;;;;;;;15.50;15.50;;;;;16.19;68.11;102091.16;1966993;29;47117;-63
2022/10/03 04:34:05;;;;;;;;;17.25;15.75;;;;;16.18;67.83;102089.41;1987830;29;46217;-62
2022/10/03 04:35:19;;;;;;;;;39.20;35.20;;;;;16.18;68.34;102091.19;2013713;29;47494;-63
2022/10/03 04:36:42;;;;;;;;;25.60;24.80;;;;;16.17;68.04;102086.75;2020522;29;46380;-63
2022/10/03 04:38:12;;;;;;;;;30.60;29.40;;;;;16.16;68.39;102090.34;2022336;29;46784;-63
2022/10/03 04:39:36;;;;;;;;;16.20;15.40;;;;;16.15;68.30;102089.47;2022176;29;46023;-62
2022/10/03 04:40:47;;;;;;;;;16.80;16.00;;;;;16.15;68.34;102081.44;2051992;28;46842;-62
2022/10/03 04:41:56;;;;;;;;;12.50;11.50;;;;;16.17;68.34;102081.41;2053976;28;46602;-62
2022/10/03 04:43:15;;;;;;;;;15.40;15.40;;;;;16.15;68.04;102080.56;2048316;28;45679;-63
2022/10/03 04:44:49;;;;;;;;;5.20;5.20;;;;;16.15;68.02;102081.44;2071615;28;46584;-62
2022/10/03 04:45:50;;;;;;;;;13.00;12.00;;;;;16.15;67.84;102081.44;2076719;28;46335;-61
2022/10/03 04:46:59;;;;;;;;;12.33;9.33;;;;;16.16;67.97;102083.22;2079277;28;46509;-62
2022/10/03 04:48:29;;;;;;;;;15.75;15.75;;;;;16.17;68.15;102084.97;2078216;28;46742;-62
2022/10/03 04:49:46;;;;;;;;;17.75;16.75;;;;;16.15;68.31;102089.47;2077489;28;46491;-63
2022/10/03 04:51:11;;;;;;;;;16.50;13.00;;;;;16.14;68.03;102090.41;2071549;28;46472;-62
2022/10/03 04:52:41;;;;;;;;;15.50;13.75;;;;;16.14;68.43;102085.03;2071387;28;47091;-64
2022/10/03 04:54:08;;;;;;;;;10.50;10.25;;;;;16.17;67.88;102092.13;2073707;28;46328;-61
2022/10/03 04:55:53;;;;;;;;;13.75;13.75;;;;;16.17;68.25;102087.63;2068657;28;46677;-61
2022/10/03 04:57:12;;;;;;;;;13.75;11.75;;;;;16.18;68.44;102088.53;2053012;28;46400;-62
2022/10/03 04:58:28;;;;;;;;;14.50;14.50;;;;;16.19;68.30;102101.00;2061340;28;45214;-63
2022/10/03 04:59:54;;;;;;;;;12.75;10.50;;;;;16.19;68.39;102096.53;2059265;28;45149;-62
2022/10/03 05:01:16;;;;;;;;;18.00;15.50;;;;;16.17;68.04;102092.13;2055832;28;46458;-59
2022/10/03 05:02:39;;;;;;;;;16.80;15.60;;;;;16.18;68.47;102104.59;2055506;28;46665;-62
2022/10/03 05:03:52;;;;;;;;;12.00;11.75;;;;;16.16;68.39;102096.59;2061204;28;46683;-61
2022/10/03 05:05:22;;;;;;;;;15.25;15.25;;;;;16.15;68.31;102099.31;2060332;28;46785;-61
2022/10/03 05:06:28;;;;;;;;;13.00;13.00;;;;;16.15;68.21;102097.50;2058782;28;47100;-61
2022/10/03 05:07:40;;;;;;;;;15.80;15.20;;;;;16.13;68.13;102103.78;2060362;28;46652;-61
2022/10/03 05:08:45;;;;;;;;;13.00;12.00;;;;;16.13;68.35;102106.47;2060696;28;47051;-59
2022/10/03 05:09:51;;;;;;;;;14.50;13.25;;;;;16.12;68.34;102100.25;2055026;28;46736;-62
2022/10/03 05:11:23;;;;;;;;;10.50;10.50;;;;;16.12;68.40;102102.91;2057482;28;46612;-63
2022/10/03 05:12:42;;;;;;;;;14.50;12.00;;;;;16.13;68.31;102098.44;2057176;28;47369;-60
2022/10/03 05:14:17;;;;;;;;;14.50;14.50;;;;;16.15;68.20;102104.66;2057128;28;46572;-61
2022/10/03 05:15:27;;;;;;;;;19.00;17.00;;;;;16.13;68.27;102107.38;2053224;28;46667;-62
2022/10/03 05:16:37;;;;;;;;;14.60;14.60;;;;;16.10;68.32;102104.75;2053741;28;46958;-60
2022/10/03 05:18:02;;;;;;;;;14.00;14.00;;;;;16.08;68.36;102103.03;2058313;28;46668;-62
2022/10/03 05:19:21;;;;;;;;;11.00;11.00;;;;;16.06;68.68;102103.06;2057245;28;47060;-62
2022/10/03 05:21:04;;;;;;;;;14.25;13.00;;;;;16.05;68.56;102098.63;2056915;28;46481;-60
2022/10/03 05:22:41;;;;;;;;;14.50;14.50;;;;;16.05;68.45;102106.66;2057917;28;46875;-62
2022/10/03 05:24:01;;;;;;;;;15.50;13.50;;;;;16.05;68.77;102098.63;2036594;28;46271;-61
2022/10/03 05:25:24;;;;;;;;;12.75;11.50;;;;;16.08;68.56;102103.03;2037290;28;46632;-60
2022/10/03 05:26:57;;;;;;;;;12.75;12.00;;;;;16.07;68.73;102104.81;2026697;28;46500;-61
2022/10/03 05:28:18;;;;;;;;;13.00;13.00;;;;;16.10;68.46;102103.88;2009483;29;45611;-60
2022/10/03 05:29:38;;;;;;;;;12.20;12.20;;;;;16.10;68.56;102110.09;2015996;29;46999;-61
2022/10/03 05:30:48;;;;;;;;;11.25;11.25;;;;;16.10;68.49;102102.06;2016109;29;46479;-61
2022/10/03 05:31:58;;;;;;;;;13.75;12.50;;;;;16.08;68.22;102103.91;2015954;29;46502;-60
2022/10/03 05:33:08;;;;;;;;;12.50;11.00;;;;;16.06;68.09;102107.53;2015411;29;46493;-61
2022/10/03 05:34:17;;;;;;;;;11.50;11.50;;;;;16.06;68.16;102107.53;2018185;29;45836;-61
2022/10/03 05:35:20;;;;;;;;;16.25;14.00;;;;;16.05;68.29;102109.34;2015674;29;46821;-62
2022/10/03 05:36:53;;;;;;;;;11.75;10.75;;;;;16.06;68.18;102115.56;2020814;29;46822;-62
2022/10/03 05:38:31;;;;;;;;;13.50;12.25;;;;;16.06;68.07;102113.78;2022604;29;46631;-60
2022/10/03 05:39:41;;;;;;;;;11.75;9.25;;;;;16.06;68.12;102116.47;2023172;29;46601;-61
2022/10/03 05:41:05;;;;;;;;;8.75;8.75;;;;;16.05;67.70;102114.69;2024251;29;46682;-61
2022/10/03 05:42:29;;;;;;;;;10.25;9.25;;;;;16.04;67.95;102120.97;2023232;29;46913;-60
2022/10/03 05:43:57;;;;;;;;;10.75;10.00;;;;;16.01;67.72;102128.19;2023196;29;46667;-61
2022/10/03 05:45:00;;;;;;;;;10.75;10.75;;;;;15.99;68.00;102125.53;2022504;29;46131;-61
2022/10/03 05:46:14;;;;;;;;;13.00;11.50;;;;;15.97;67.71;102123.81;2023381;29;46590;-61
2022/10/03 05:47:47;;;;;;;;;7.50;7.50;;;;;15.98;67.51;102128.25;2023443;29;46165;-61
2022/10/03 05:49:03;;;;;;;;;10.25;10.25;;;;;15.98;67.63;102123.75;2023620;29;46479;-61
2022/10/03 05:50:26;;;;;;;;;12.50;12.00;;;;;15.99;67.67;102124.66;2023363;29;46728;-61
2022/10/03 05:51:57;;;;;;;;;11.75;11.00;;;;;15.95;67.08;102121.16;2023242;29;46371;-61
2022/10/03 05:53:23;;;;;;;;;9.00;9.00;;;;;15.94;67.46;102121.19;2017583;29;46031;-59
2022/10/03 05:54:39;;;;;;;;;14.00;11.75;;;;;15.94;67.75;102115.84;2022853;29;47071;-60
2022/10/03 05:55:48;;;;;;;;;11.50;11.50;;;;;15.94;67.44;102114.03;2015257;29;46867;-60
2022/10/03 05:57:23;;;;;;;;;9.75;9.00;;;;;15.94;67.47;102116.72;2018192;29;47031;-62
2022/10/03 05:58:48;;;;;;;;;10.25;10.25;;;;;15.94;67.15;102114.03;2024418;29;45637;-60
2022/10/03 06:00:22;;;;;;;;;11.00;9.75;;;;;15.95;67.69;102112.25;2028787;29;47556;-59
2022/10/03 06:01:25;;;;;;;;;11.00;11.00;;;;;15.95;67.33;102115.81;2033875;28;46444;-62
2022/10/03 06:02:37;;;;;;;;;12.50;11.00;;;;;15.96;67.25;102114.88;2052866;28;46866;-62
2022/10/03 06:03:49;;;;;;;;;14.20;14.20;;;;;15.99;67.75;102108.59;2050474;28;46714;-61
2022/10/03 06:05:14;;;;;;;;;11.75;11.75;;;;;16.00;67.36;102108.53;2048165;28;46834;-60
2022/10/03 06:06:26;;;;;;;;;13.75;13.00;;;;;15.99;67.52;102103.22;2059617;28;46821;-60
2022/10/03 06:07:32;;;;;;;;;12.25;12.25;;;;;15.98;67.39;102105.03;2061641;28;46605;-61
2022/10/03 06:08:41;;;;;;;;;13.25;12.00;;;;;15.97;67.54;102100.59;2062941;28;46772;-61
2022/10/03 06:10:03;;;;;;;;;12.00;10.50;;;;;15.96;67.18;102101.50;2068141;28;46511;-62
2022/10/03 06:11:26;;;;;;;;;10.75;10.75;;;;;15.98;67.61;102094.31;2060016;28;46577;-60